Time;durP1;ratioP1;P1;durP2;ratioP2;P2;SDS_P1;SDS_P2;PMS_P1;PMS_P2;Temp;Humidity;BMP_temperature;BMP_pressure;BME280_temperature;BME280_humidity;BME280_pressure;Samples;Min_cycle;Max_cycle;Signal;HPM_P1;HPM_P2
2023/08/03 00:02:17;;;;;;;8.75;3.83;;;;;;;15.55;100.00;99230.97;5023461;28;20065;-64
2023/08/03 00:04:44;;;;;;;11.35;3.78;;;;;;;15.54;100.00;99235.38;5047028;28;20053;-64
2023/08/03 00:07:11;;;;;;;10.98;4.30;;;;;;;15.45;100.00;99238.78;5044176;28;20056;-64
2023/08/03 00:09:39;;;;;;;11.90;3.90;;;;;;;15.42;100.00;99241.66;5031132;28;20053;-64
2023/08/03 00:12:07;;;;;;;10.82;4.35;;;;;;;15.34;100.00;99233.56;5022668;28;20053;-64
2023/08/03 00:14:33;;;;;;;10.73;4.30;;;;;;;15.47;100.00;99247.41;5013052;28;20137;-64
2023/08/03 00:17:00;;;;;;;9.25;3.65;;;;;;;15.35;100.00;99243.13;5044662;28;20471;-64
2023/08/03 00:19:26;;;;;;;11.30;3.88;;;;;;;15.30;100.00;99256.72;5032947;28;20451;-64
2023/08/03 00:21:53;;;;;;;8.93;3.53;;;;;;;15.45;100.00;99251.97;5027556;28;20045;-64
2023/08/03 00:24:20;;;;;;;11.82;4.60;;;;;;;15.28;100.00;99263.06;5029645;28;20064;-63
2023/08/03 00:26:46;;;;;;;8.23;3.55;;;;;;;15.42;100.00;99268.03;5031172;28;20057;-63
2023/08/03 00:29:13;;;;;;;10.65;3.85;;;;;;;15.55;100.00;99263.47;5050462;28;20057;-63
2023/08/03 00:31:40;;;;;;;8.55;3.30;;;;;;;15.55;100.00;99263.47;5033200;28;20399;-63
2023/08/03 00:34:07;;;;;;;10.55;4.10;;;;;;;15.53;100.00;99265.38;5028920;28;20388;-63
2023/08/03 00:36:33;;;;;;;9.75;3.90;;;;;;;15.60;100.00;99265.72;5042563;28;20372;-63
2023/08/03 00:39:00;;;;;;;9.07;3.70;;;;;;;15.55;100.00;99275.81;5021063;28;20055;-63
2023/08/03 00:41:27;;;;;;;11.95;4.43;;;;;;;15.59;100.00;99271.13;5039964;28;20399;-63
2023/08/03 00:43:54;;;;;;;24.75;4.93;;;;;;;15.52;100.00;99276.88;5043410;28;20060;-63
2023/08/03 00:46:20;;;;;;;14.50;5.22;;;;;;;15.37;100.00;99281.63;5038500;28;20132;-63
2023/08/03 00:48:47;;;;;;;10.13;4.07;;;;;;;15.66;100.00;99290.75;5050009;28;20132;-63
2023/08/03 00:51:13;;;;;;;13.40;4.47;;;;;;;15.36;100.00;99290.47;5032843;28;20049;-63
2023/08/03 00:53:40;;;;;;;10.88;4.72;;;;;;;15.29;100.00;99283.19;5030518;28;20045;-63
2023/08/03 00:56:07;;;;;;;9.77;3.85;;;;;;;15.43;100.00;99290.00;5027025;28;20399;-63
2023/08/03 00:58:33;;;;;;;9.68;3.83;;;;;;;15.36;100.00;99292.28;5030348;28;20496;-63
2023/08/03 01:01:00;;;;;;;10.43;4.10;;;;;;;15.48;100.00;99282.56;5023870;28;20053;-64
2023/08/03 01:03:27;;;;;;;9.77;4.03;;;;;;;15.55;100.00;99292.47;5034429;28;20114;-63
2023/08/03 01:05:53;;;;;;;11.95;4.35;;;;;;;15.61;100.00;99295.59;5038405;28;20092;-63
2023/08/03 01:08:20;;;;;;;10.55;4.05;;;;;;;15.46;100.00;99303.78;5030542;28;20049;-63
2023/08/03 01:10:47;;;;;;;10.27;4.03;;;;;;;15.44;100.00;99296.94;5034580;28;20049;-63
2023/08/03 01:13:13;;;;;;;11.55;3.85;;;;;;;15.51;100.00;99312.16;5029927;28;20099;-63
2023/08/03 01:15:40;;;;;;;10.05;3.80;;;;;;;15.44;100.00;99296.94;5030084;28;20052;-63
2023/08/03 01:18:07;;;;;;;9.52;3.85;;;;;;;15.37;100.00;99300.06;5030590;28;20427;-63
2023/08/03 01:20:37;;;;;;;10.07;3.80;;;;;;;15.37;100.00;99317.72;5032438;28;20037;-63
2023/08/03 01:23:05;;;;;;;9.18;3.40;;;;;;;15.45;100.00;99302.09;5042360;28;20059;-63
2023/08/03 01:25:32;;;;;;;10.13;3.45;;;;;;;15.41;100.00;99307.75;5034850;28;20048;-63
2023/08/03 01:27:59;;;;;;;8.23;3.03;;;;;;;15.37;100.00;99301.88;5037075;28;20055;-63
2023/08/03 01:30:25;;;;;;;10.45;4.13;;;;;;;15.12;100.00;99301.22;5030649;28;20048;-63
2023/08/03 01:32:52;;;;;;;11.80;2.60;;;;;;;15.40;100.00;99311.34;5033408;28;20060;-64
2023/08/03 01:35:19;;;;;;;8.98;3.10;;;;;;;15.30;100.00;99313.88;5043440;28;20053;-64
2023/08/03 01:37:46;;;;;;;10.45;3.20;;;;;;;15.16;100.00;99309.72;5044420;28;20052;-65
2023/08/03 01:40:13;;;;;;;7.85;2.72;;;;;;;14.95;100.00;99310.44;5037994;28;20057;-64
2023/08/03 01:42:40;;;;;;;8.30;2.78;;;;;;;14.92;100.00;99313.31;5020134;28;20060;-64
2023/08/03 01:45:07;;;;;;;7.63;2.53;;;;;;;14.97;100.00;99315.59;5015704;28;20164;-64
2023/08/03 01:47:33;;;;;;;7.32;2.42;;;;;;;14.77;100.00;99309.25;5037033;28;20049;-64
2023/08/03 01:50:00;;;;;;;7.82;2.40;;;;;;;14.79;100.00;99302.88;5043126;28;20428;-65
2023/08/03 01:52:27;;;;;;;7.00;2.35;;;;;;;15.00;100.00;99326.72;5032497;28;20100;-64
2023/08/03 01:54:53;;;;;;;5.65;2.00;;;;;;;15.02;100.00;99329.25;5047135;28;20050;-64
2023/08/03 01:57:20;;;;;;;6.65;2.30;;;;;;;15.06;100.00;99333.31;5044242;28;20059;-64
2023/08/03 01:59:47;;;;;;;5.65;2.20;;;;;;;15.10;100.00;99339.19;5049685;28;20557;-64
2023/08/03 02:02:14;;;;;;;6.38;2.20;;;;;;;15.00;100.00;99328.53;5041402;28;20056;-64
2023/08/03 02:04:41;;;;;;;7.07;1.85;;;;;;;15.05;100.00;99346.59;5030544;28;20533;-64
2023/08/03 02:07:38;;;;;;;6.43;2.15;;;;;;;15.02;100.00;99339.78;5040269;28;20053;-64
2023/08/03 02:10:05;;;;;;;6.63;2.00;;;;;;;15.04;100.00;99343.13;5032481;28;20391;-64
2023/08/03 02:12:32;;;;;;;5.80;2.17;;;;;;;15.15;100.00;99350.19;5027035;28;20494;-64
2023/08/03 02:14:58;;;;;;;7.13;2.60;;;;;;;15.10;100.00;99355.00;5049280;28;20053;-64
2023/08/03 02:17:27;;;;;;;6.85;2.35;;;;;;;15.16;100.00;99347.44;5044017;28;20045;-64
2023/08/03 02:19:55;;;;;;;8.60;2.75;;;;;;;15.26;100.00;99344.09;5039064;28;20063;-64
2023/08/03 02:22:21;;;;;;;6.82;2.40;;;;;;;15.17;100.00;99337.72;5031891;28;20041;-64
2023/08/03 02:24:48;;;;;;;8.98;2.88;;;;;;;15.11;100.00;99348.78;5037897;28;20391;-64
2023/08/03 02:27:15;;;;;;;8.52;2.95;;;;;;;15.12;100.00;99359.22;5045670;28;20064;-64
2023/08/03 02:29:41;;;;;;;7.40;2.30;;;;;;;15.16;100.00;99351.91;5031223;28;20426;-64
2023/08/03 02:32:08;;;;;;;8.40;2.42;;;;;;;15.34;100.00;99357.50;5018246;28;20396;-64
2023/08/03 02:34:35;;;;;;;11.68;2.63;;;;;;;15.30;100.00;99351.63;5052913;28;21164;-64
2023/08/03 02:37:01;;;;;;;8.18;1.98;;;;;;;15.34;100.00;99357.50;5039029;28;20054;-64
2023/08/03 02:39:28;;;;;;;7.35;2.78;;;;;;;15.18;100.00;99356.06;5035989;28;20056;-64
2023/08/03 02:41:55;;;;;;;8.05;2.70;;;;;;;15.12;100.00;99350.44;5029976;28;20049;-65
2023/08/03 02:44:23;;;;;;;5.97;1.85;;;;;;;15.30;100.00;99354.28;5024925;28;20465;-64
2023/08/03 02:46:49;;;;;;;6.38;1.92;;;;;;;15.15;100.00;99353.66;5052914;28;20053;-64
2023/08/03 02:49:16;;;;;;;6.70;2.20;;;;;;;15.27;100.00;99356.31;5048687;28;20045;-64
2023/08/03 02:51:43;;;;;;;7.45;1.92;;;;;;;15.32;100.00;99352.34;5026191;28;20479;-64
2023/08/03 02:54:10;;;;;;;6.25;2.25;;;;;;;15.36;100.00;99360.84;5041363;28;20545;-64
2023/08/03 02:56:37;;;;;;;6.50;1.88;;;;;;;15.41;100.00;99357.88;5031519;28;20068;-64
2023/08/03 02:59:03;;;;;;;5.82;1.73;;;;;;;15.42;100.00;99356.88;5034700;28;20045;-64
2023/08/03 03:01:31;;;;;;;4.07;1.40;;;;;;;15.30;100.00;99364.81;5027259;28;20077;-64
2023/08/03 03:03:57;;;;;;;5.93;1.88;;;;;;;15.19;100.00;99356.91;5021949;28;20527;-64
2023/08/03 03:06:24;;;;;;;5.45;1.77;;;;;;;15.25;100.00;99368.78;5039014;28;20057;-64
2023/08/03 03:08:51;;;;;;;7.63;2.13;;;;;;;15.13;100.00;99371.41;5050239;28;20052;-64
2023/08/03 03:11:17;;;;;;;4.03;1.58;;;;;;;15.13;100.00;99367.94;5036212;28;20408;-64
2023/08/03 03:13:44;;;;;;;5.93;1.88;;;;;;;15.01;100.00;99377.63;5034535;28;20057;-64
2023/08/03 03:16:10;;;;;;;6.55;1.60;;;;;;;15.24;100.00;99375.84;5052440;28;20072;-64
2023/08/03 03:18:37;;;;;;;5.70;1.80;;;;;;;15.23;100.00;99386.50;5040522;28;20478;-64
2023/08/03 03:21:04;;;;;;;5.38;1.70;;;;;;;15.32;100.00;99383.16;5043487;28;20037;-64
2023/08/03 03:23:30;;;;;;;6.25;1.70;;;;;;;15.42;100.00;99388.53;5051544;28;20048;-64
2023/08/03 03:25:57;;;;;;;4.25;1.30;;;;;;;15.47;100.00;99387.19;5049535;28;20065;-64
2023/08/03 03:28:24;;;;;;;4.03;1.30;;;;;;;15.34;100.00;99391.78;5038945;28;20053;-64
2023/08/03 03:30:50;;;;;;;4.82;1.48;;;;;;;15.40;100.00;99391.28;5031913;28;20481;-64
2023/08/03 03:33:17;;;;;;;7.75;1.70;;;;;;;15.10;100.00;99392.75;5045979;28;20061;-65
2023/08/03 03:35:44;;;;;;;4.80;1.60;;;;;;;15.17;100.00;99395.72;5044608;28;20403;-64
2023/08/03 03:38:10;;;;;;;5.18;1.70;;;;;;;15.28;100.00;99403.66;5046196;28;20052;-64
2023/08/03 03:40:37;;;;;;;6.82;2.58;;;;;;;15.06;100.00;99401.84;5045394;28;20049;-64
2023/08/03 03:43:03;;;;;;;7.25;1.92;;;;;;;14.81;100.00;99398.47;5030447;28;20045;-64
2023/08/03 03:45:30;;;;;;;7.15;2.28;;;;;;;14.99;100.00;99404.09;5051702;28;20505;-64
2023/08/03 03:47:57;;;;;;;7.43;2.03;;;;;;;15.15;100.00;99410.84;5037012;28;20050;-64
2023/08/03 03:50:24;;;;;;;6.47;1.90;;;;;;;15.17;100.00;99408.91;5034750;28;20522;-64
2023/08/03 03:52:51;;;;;;;5.75;1.92;;;;;;;15.11;100.00;99415.50;5024508;28;20053;-64
2023/08/03 03:55:17;;;;;;;7.25;2.05;;;;;;;14.92;100.00;99410.81;5027128;28;20045;-64
2023/08/03 03:57:44;;;;;;;6.50;1.88;;;;;;;14.70;100.00;99422.16;5015660;28;20049;-64
2023/08/03 04:00:11;;;;;;;4.57;1.77;;;;;;;14.83;100.00;99424.69;5031600;28;20387;-64
2023/08/03 04:02:37;;;;;;;6.43;2.03;;;;;;;14.77;100.00;99425.19;5022707;28;20415;-65
2023/08/03 04:05:04;;;;;;;7.60;1.90;;;;;;;14.77;100.00;99419.91;5030706;28;20131;-64
2023/08/03 04:07:31;;;;;;;3.05;1.33;;;;;;;14.78;100.00;99426.84;5035278;28;20051;-64
2023/08/03 04:09:57;;;;;;;4.28;1.35;;;;;;;14.74;100.00;99434.13;5044322;28;20064;-64
2023/08/03 04:12:24;;;;;;;3.80;1.45;;;;;;;14.84;100.00;99428.16;5020181;28;20065;-64
2023/08/03 04:14:51;;;;;;;2.40;0.90;;;;;;;14.93;100.00;99440.66;5041501;28;20394;-64
2023/08/03 04:17:17;;;;;;;4.50;1.10;;;;;;;14.75;100.00;99437.59;5041028;28;20068;-64
2023/08/03 04:19:44;;;;;;;3.00;1.15;;;;;;;14.90;100.00;99446.16;5034410;28;20494;-64
2023/08/03 04:22:11;;;;;;;1.65;1.00;;;;;;;14.94;100.00;99450.22;5043904;28;20056;-64
2023/08/03 04:24:38;;;;;;;4.57;1.20;;;;;;;14.96;100.00;99450.94;5033375;28;20054;-64
2023/08/03 04:27:05;;;;;;;2.45;0.93;;;;;;;14.94;100.00;99458.13;5044429;28;20059;-64
2023/08/03 04:29:32;;;;;;;1.98;1.00;;;;;;;14.88;100.00;99459.44;5029447;28;20049;-64
2023/08/03 04:31:58;;;;;;;0.93;0.70;;;;;;;14.97;100.00;99457.91;5018317;28;20053;-64
2023/08/03 04:34:25;;;;;;;1.60;0.90;;;;;;;14.77;100.00;99456.78;5047935;28;20545;-64
2023/08/03 04:36:52;;;;;;;1.85;0.90;;;;;;;14.83;100.00;99461.59;5040962;28;20100;-64
2023/08/03 04:39:18;;;;;;;1.90;0.93;;;;;;;14.84;100.00;99467.69;5045291;28;20048;-64
2023/08/03 04:41:45;;;;;;;5.28;1.40;;;;;;;14.80;100.00;99460.03;5034685;28;20045;-64
2023/08/03 04:44:12;;;;;;;3.88;1.30;;;;;;;14.80;100.00;99467.94;5031754;28;20071;-65
2023/08/03 04:46:38;;;;;;;4.65;1.48;;;;;;;14.78;100.00;99466.38;5036346;28;20051;-64
2023/08/03 04:49:10;;;;;;;4.25;1.42;;;;;;;14.64;100.00;99472.66;5037287;28;20487;-64
2023/08/03 04:51:36;;;;;;;4.75;1.30;;;;;;;14.74;100.00;99467.56;5039931;28;20152;-64
2023/08/03 04:54:03;;;;;;;3.47;1.40;;;;;;;14.70;100.00;99459.03;5050727;28;20049;-64
2023/08/03 04:56:30;;;;;;;4.07;1.27;;;;;;;14.56;100.00;99459.22;5031978;28;20049;-64
2023/08/03 04:58:56;;;;;;;8.90;1.50;;;;;;;14.58;100.00;99471.31;5039500;28;20059;-64
2023/08/03 05:01:23;;;;;;;3.85;1.20;;;;;;;14.56;100.00;99453.94;5041471;28;20041;-64
2023/08/03 05:03:50;;;;;;;4.70;1.35;;;;;;;14.56;100.00;99457.41;5040645;28;20400;-64
2023/08/03 05:06:16;;;;;;;2.97;1.13;;;;;;;14.46;100.00;99472.19;5030272;28;20085;-64
2023/08/03 05:08:43;;;;;;;2.83;1.10;;;;;;;14.31;100.00;99460.19;5018726;28;20049;-64
2023/08/03 05:11:10;;;;;;;3.63;1.20;;;;;;;14.50;100.00;99473.69;5029370;28;20142;-64
2023/08/03 05:13:37;;;;;;;5.53;1.00;;;;;;;14.38;100.00;99482.47;5038956;28;20072;-64
2023/08/03 05:16:04;;;;;;;2.72;1.10;;;;;;;14.37;100.00;99483.41;5029864;28;20152;-64
2023/08/03 05:18:30;;;;;;;1.70;0.90;;;;;;;14.34;100.00;99487.13;5029720;28;20435;-64
2023/08/03 05:20:57;;;;;;;5.80;1.52;;;;;;;14.14;100.00;99493.00;5042096;28;20057;-64
2023/08/03 05:23:23;;;;;;;3.13;1.00;;;;;;;14.35;100.00;99485.34;5034460;28;20046;-65
2023/08/03 05:25:57;;;;;;;3.13;1.10;;;;;;;14.42;100.00;99499.72;5029664;28;20086;-64
2023/08/03 05:28:25;;;;;;;2.80;1.00;;;;;;;14.34;100.00;99483.63;5020805;28;20052;-64
2023/08/03 05:30:51;;;;;;;2.83;1.10;;;;;;;14.51;100.00;99495.59;5027851;28;20411;-64
2023/08/03 05:33:18;;;;;;;2.80;1.00;;;;;;;14.45;100.00;99499.50;5029632;28;20498;-64
2023/08/03 05:35:47;;;;;;;4.18;1.42;;;;;;;14.56;100.00;99490.81;5029155;28;20053;-64
2023/08/03 05:38:16;;;;;;;3.30;1.00;;;;;;;14.37;100.00;99488.69;5030248;28;20453;-64
2023/08/03 05:40:43;;;;;;;2.97;1.13;;;;;;;14.70;100.00;99497.72;5029469;28;20046;-64
2023/08/03 05:43:11;;;;;;;2.90;1.10;;;;;;;14.70;100.00;99503.84;5025457;28;20085;-64
2023/08/03 05:45:47;;;;;;;3.80;1.30;;;;;;;14.87;100.00;99509.63;5028928;28;20072;-64
2023/08/03 05:48:16;;;;;;;4.63;1.30;;;;;;;14.79;100.00;99511.03;5026460;28;20495;-64
2023/08/03 05:50:48;;;;;;;6.72;1.17;;;;;;;14.74;100.00;99510.53;5016346;28;20050;-64
2023/08/03 05:53:16;;;;;;;4.63;1.33;;;;;;;14.81;100.00;99508.28;5028885;28;20056;-64
2023/08/03 05:55:43;;;;;;;3.67;1.05;;;;;;;14.99;100.00;99520.06;5020904;28;20056;-64
2023/08/03 05:58:20;;;;;;;2.30;0.93;;;;;;;14.71;100.00;99504.66;5035278;28;20537;-64
2023/08/03 06:00:49;;;;;;;2.72;0.98;;;;;;;14.90;100.00;99520.78;5024165;28;20046;-64
2023/08/03 06:03:18;;;;;;;2.38;1.00;;;;;;;15.09;100.00;99522.88;5026930;28;20046;-64
2023/08/03 06:05:49;;;;;;;5.65;1.33;;;;;;;15.09;100.00;99517.59;5029528;28;20045;-64
2023/08/03 06:08:21;;;;;;;3.53;1.00;;;;;;;15.12;100.00;99532.34;5028671;28;20471;-64
2023/08/03 06:10:53;;;;;;;3.67;1.27;;;;;;;15.18;100.00;99538.00;5020241;28;20050;-64
2023/08/03 06:13:33;;;;;;;4.82;1.20;;;;;;;14.95;100.00;99539.72;5026379;28;20046;-65
2023/08/03 06:16:11;;;;;;;4.47;1.20;;;;;;;15.18;100.00;99547.72;5035964;28;20394;-64
2023/08/03 06:18:46;;;;;;;3.30;1.05;;;;;;;15.28;100.00;99538.16;5034164;28;20059;-64
2023/08/03 06:21:14;;;;;;;2.28;0.95;;;;;;;15.05;100.00;99539.88;5031269;28;20065;-64
2023/08/03 06:23:47;;;;;;;3.33;1.13;;;;;;;15.19;100.00;99547.59;5032541;28;20041;-64
2023/08/03 06:26:16;;;;;;;3.97;1.10;;;;;;;15.08;100.00;99552.81;5031107;28;20049;-63
2023/08/03 06:28:44;;;;;;;2.55;1.02;;;;;;;15.12;100.00;99562.19;5013678;28;20050;-63
2023/08/03 06:31:33;;;;;;;2.90;1.00;;;;;;;15.36;100.00;99562.13;5031055;28;20387;-63
2023/08/03 06:34:02;;;;;;;3.90;1.10;;;;;;;15.04;100.00;99569.00;5032027;28;20122;-63
2023/08/03 06:36:29;;;;;;;6.65;1.42;;;;;;;15.06;100.00;99567.91;5032329;28;20463;-63
2023/08/03 06:38:56;;;;;;;4.00;1.23;;;;;;;15.06;100.00;99578.47;5031703;28;20471;-64
2023/08/03 06:41:24;;;;;;;2.72;1.17;;;;;;;14.89;100.00;99568.31;5026720;28;20053;-63
2023/08/03 06:43:55;;;;;;;2.80;1.00;;;;;;;15.03;100.00;99585.75;5030159;28;20041;-63
2023/08/03 06:46:22;;;;;;;4.63;0.90;;;;;;;15.07;100.00;99585.41;5022245;28;20098;-63
2023/08/03 06:48:50;;;;;;;4.80;1.30;;;;;;;15.07;100.00;99584.56;5030073;28;20053;-63
2023/08/03 06:51:17;;;;;;;3.40;1.00;;;;;;;15.21;100.00;99592.31;5024683;28;20502;-64
2023/08/03 06:53:44;;;;;;;1.65;0.85;;;;;;;15.16;100.00;99573.34;5030526;28;20053;-63
2023/08/03 06:56:11;;;;;;;2.22;0.90;;;;;;;15.28;100.00;99582.97;5026475;28;20058;-63
2023/08/03 06:58:38;;;;;;;2.38;1.02;;;;;;;15.13;100.00;99586.75;5039799;28;20049;-64
2023/08/03 07:01:05;;;;;;;3.72;0.98;;;;;;;15.26;100.00;99591.94;5030245;28;20423;-64
2023/08/03 07:03:31;;;;;;;2.67;1.10;;;;;;;15.31;100.00;99589.81;5028973;28;20048;-63
2023/08/03 07:05:58;;;;;;;3.65;1.00;;;;;;;15.23;100.00;99589.53;5032126;28;20313;-64
2023/08/03 07:08:25;;;;;;;5.75;1.60;;;;;;;15.30;100.00;99594.25;5030856;28;20100;-63
2023/08/03 07:10:52;;;;;;;2.95;1.10;;;;;;;15.37;100.00;99598.09;5027074;28;20415;-63
2023/08/03 07:13:18;;;;;;;2.38;0.98;;;;;;;15.15;100.00;99592.75;5027913;28;20064;-63
2023/08/03 07:15:45;;;;;;;4.00;1.30;;;;;;;15.16;100.00;99600.53;5048707;28;20093;-63
2023/08/03 07:18:12;;;;;;;5.05;1.13;;;;;;;15.23;100.00;99615.91;5039158;28;20491;-63
2023/08/03 07:20:38;;;;;;;3.15;1.20;;;;;;;15.23;100.00;99607.97;5026670;28;21190;-63
2023/08/03 07:23:07;;;;;;;3.60;1.13;;;;;;;15.19;100.00;99600.31;5028165;28;20129;-63
2023/08/03 07:25:34;;;;;;;2.97;1.00;;;;;;;15.46;100.00;99612.38;5027455;28;20056;-63
2023/08/03 07:28:01;;;;;;;2.65;0.85;;;;;;;15.54;100.00;99617.06;5028074;28;20049;-63
2023/08/03 07:30:28;;;;;;;2.92;1.15;;;;;;;15.49;100.00;99616.56;5024734;28;20470;-63
2023/08/03 07:32:58;;;;;;;4.20;1.10;;;;;;;15.62;100.00;99611.22;5018263;28;20092;-63
2023/08/03 07:35:25;;;;;;;2.67;1.02;;;;;;;15.79;100.00;99617.84;5016582;28;20072;-63
2023/08/03 07:37:52;;;;;;;3.55;1.08;;;;;;;15.69;100.00;99617.72;5021780;28;20127;-63
2023/08/03 07:40:18;;;;;;;2.50;1.00;;;;;;;15.59;100.00;99614.09;5014001;28;20058;-63
2023/08/03 07:42:45;;;;;;;2.83;0.90;;;;;;;15.36;100.00;99609.59;5018507;28;20056;-64
2023/08/03 07:45:12;;;;;;;4.50;1.20;;;;;;;15.70;100.00;99624.66;5012377;28;20054;-64
2023/08/03 07:47:38;;;;;;;4.13;1.10;;;;;;;15.65;100.00;99621.53;5020416;28;20399;-64
2023/08/03 07:50:06;;;;;;;3.38;1.00;;;;;;;15.50;100.00;99628.81;5030563;28;20103;-64
2023/08/03 07:52:33;;;;;;;5.28;0.95;;;;;;;15.60;100.00;99623.66;5026764;28;20067;-64
2023/08/03 07:55:00;;;;;;;2.28;0.90;;;;;;;15.54;100.00;99630.25;5025972;28;20056;-64
2023/08/03 07:57:27;;;;;;;4.18;0.90;;;;;;;15.69;100.00;99612.44;5016995;28;20055;-64
2023/08/03 07:59:53;;;;;;;2.25;0.90;;;;;;;15.93;100.00;99633.47;5014417;28;20063;-64
2023/08/03 08:02:21;;;;;;;3.10;0.90;;;;;;;16.27;100.00;99633.47;5014161;28;20373;-64
2023/08/03 08:04:50;;;;;;;1.85;0.80;;;;;;;16.19;100.00;99634.06;5021992;28;20073;-64
2023/08/03 08:07:18;;;;;;;2.88;0.90;;;;;;;16.07;100.00;99633.22;5021502;28;20470;-64
2023/08/03 08:09:45;;;;;;;1.25;0.75;;;;;;;16.07;100.00;99629.75;5026079;28;20054;-64
2023/08/03 08:12:12;;;;;;;0.95;0.70;;;;;;;16.05;100.00;99637.78;5024658;28;20081;-64
2023/08/03 08:14:39;;;;;;;1.98;0.80;;;;;;;16.03;100.00;99650.28;5026962;28;20049;-64
2023/08/03 08:17:06;;;;;;;1.63;0.80;;;;;;;16.25;100.00;99662.63;5026880;28;20049;-64
2023/08/03 08:19:39;;;;;;;1.80;0.80;;;;;;;16.25;100.00;99662.63;5023007;28;20052;-64
2023/08/03 08:22:07;;;;;;;3.58;0.90;;;;;;;16.31;100.00;99662.16;5024412;28;20049;-64
2023/08/03 08:24:42;;;;;;;3.47;1.20;;;;;;;16.26;100.00;99659.03;5034606;28;20247;-64
2023/08/03 08:27:09;;;;;;;2.63;0.80;;;;;;;16.08;100.00;99668.41;5026087;28;20050;-64
2023/08/03 08:29:37;;;;;;;2.13;0.90;;;;;;;16.03;100.00;99668.75;5024600;28;20468;-64
2023/08/03 08:32:05;;;;;;;1.23;0.80;;;;;;;16.21;100.00;99671.75;5021706;28;20525;-64
2023/08/03 08:34:32;;;;;;;3.22;1.00;;;;;;;16.24;100.00;99670.69;5027510;28;20651;-64
2023/08/03 08:36:58;;;;;;;1.92;0.90;;;;;;;16.17;100.00;99670.34;5026977;28;20090;-64
2023/08/03 08:39:26;;;;;;;3.53;1.00;;;;;;;16.46;100.00;99673.31;5026806;28;20471;-64
2023/08/03 08:41:53;;;;;;;3.20;0.88;;;;;;;16.51;100.00;99670.31;5023419;28;20063;-64
2023/08/03 08:44:20;;;;;;;2.13;0.80;;;;;;;16.65;100.00;99682.44;5022648;28;20045;-64
2023/08/03 08:46:47;;;;;;;1.92;0.88;;;;;;;16.76;100.00;99682.41;5028932;28;20053;-65
2023/08/03 08:49:14;;;;;;;1.98;0.90;;;;;;;16.49;100.00;99666.97;5022625;28;20057;-67
2023/08/03 08:51:45;;;;;;;2.67;0.80;;;;;;;16.80;100.00;99675.06;5023484;28;20049;-67
2023/08/03 08:54:15;;;;;;;4.28;0.90;;;;;;;16.64;100.00;99683.38;5016426;28;20049;-67
2023/08/03 08:56:45;;;;;;;1.50;0.80;;;;;;;16.77;100.00;99672.66;5014221;28;20050;-69
2023/08/03 08:59:14;;;;;;;2.58;0.80;;;;;;;16.76;100.00;99674.47;5019283;28;20065;-66
2023/08/03 09:01:51;;;;;;;2.38;0.70;;;;;;;16.84;100.00;99671.28;5025692;28;20056;-67
2023/08/03 09:04:32;;;;;;;3.42;0.80;;;;;;;16.97;100.00;99674.59;5027610;28;20042;-67
2023/08/03 09:07:02;;;;;;;1.00;0.70;;;;;;;16.69;100.00;99668.00;5018758;28;20053;-67
2023/08/03 09:09:35;;;;;;;2.13;0.70;;;;;;;16.92;100.00;99694.44;5021839;28;20088;-66
2023/08/03 09:12:03;;;;;;;1.53;0.80;;;;;;;16.67;100.00;99683.97;5018085;28;20057;-67
2023/08/03 09:14:32;;;;;;;2.55;0.75;;;;;;;16.46;100.00;99689.16;5023915;28;20282;-65
2023/08/03 09:17:16;;;;;;;2.40;0.80;;;;;;;16.39;100.00;99682.69;5031506;28;20470;-65
2023/08/03 09:19:45;;;;;;;2.03;0.80;;;;;;;16.70;100.00;99688.19;5010578;28;20479;-65
2023/08/03 09:22:19;;;;;;;2.45;0.90;;;;;;;17.13;100.00;99690.03;5008182;28;20061;-65
2023/08/03 09:25:05;;;;;;;2.80;0.88;;;;;;;16.93;100.00;99675.81;5027377;28;20459;-65
2023/08/03 09:27:33;;;;;;;1.88;0.80;;;;;;;17.32;100.00;99688.56;5036410;28;20045;-65
2023/08/03 09:30:04;;;;;;;1.05;0.70;;;;;;;17.72;100.00;99701.09;5022141;28;20053;-65
2023/08/03 09:32:41;;;;;;;1.13;0.70;;;;;;;17.57;100.00;99697.94;5020202;28;20495;-65
2023/08/03 09:35:19;;;;;;;3.05;1.00;;;;;;;17.81;100.00;99700.31;5002215;28;20053;-65
2023/08/03 09:37:47;;;;;;;2.05;0.70;;;;;;;17.20;100.00;99693.03;5020603;28;20052;-65
2023/08/03 09:40:17;;;;;;;2.80;1.10;;;;;;;17.31;100.00;99698.28;4997709;28;20049;-65
2023/08/03 09:42:44;;;;;;;1.73;0.70;;;;;;;17.55;100.00;99695.41;5014021;28;20045;-65
2023/08/03 09:45:11;;;;;;;2.28;1.00;;;;;;;17.29;100.00;99689.63;5028754;28;20061;-65
2023/08/03 09:47:41;;;;;;;3.75;0.90;;;;;;;17.36;100.00;99682.84;5028374;28;20046;-65
2023/08/03 09:50:09;;;;;;;1.55;0.82;;;;;;;17.77;100.00;99683.84;5023042;28;20493;-65
2023/08/03 09:52:43;;;;;;;4.45;0.90;;;;;;;17.48;100.00;99661.66;5030477;28;20399;-65
2023/08/03 09:55:20;;;;;;;1.63;0.80;;;;;;;18.02;100.00;99698.53;5016724;28;20054;-65
2023/08/03 09:58:00;;;;;;;3.03;1.00;;;;;;;18.13;100.00;99710.88;5027610;28;20053;-65
2023/08/03 10:00:28;;;;;;;1.48;0.80;;;;;;;18.39;100.00;99715.72;5020759;28;20048;-65
2023/08/03 10:03:00;;;;;;;3.70;0.82;;;;;;;18.29;100.00;99705.09;5011108;28;20138;-67
2023/08/03 10:05:29;;;;;;;1.70;0.70;;;;;;;18.64;100.00;99716.22;5025039;28;20053;-66
2023/08/03 10:08:13;;;;;;;3.78;1.05;;;;;;;18.91;100.00;99708.53;5022149;28;20475;-66
2023/08/03 10:10:46;;;;;;;1.85;0.73;;;;;;;18.48;100.00;99714.09;5027629;28;20073;-66
2023/08/03 10:13:14;;;;;;;2.28;0.80;;;;;;;18.46;100.00;99708.91;5029392;28;20487;-66
2023/08/03 10:15:42;;;;;;;1.88;0.88;;;;;;;18.83;100.00;99716.31;5047245;28;20547;-66
2023/08/03 10:18:10;;;;;;;0.98;0.70;;;;;;;19.02;100.00;99710.22;5023343;28;20080;-67
2023/08/03 10:20:39;;;;;;;1.70;0.70;;;;;;;18.86;100.00;99689.53;5008405;28;20089;-67
2023/08/03 10:23:09;;;;;;;2.97;0.80;;;;;;;19.38;100.00;99713.19;5014064;28;20076;-66
2023/08/03 10:25:53;;;;;;;2.97;0.90;;;;;;;19.31;100.00;99714.72;5025484;28;20056;-67
2023/08/03 10:28:21;;;;;;;2.72;0.80;;;;;;;19.10;100.00;99717.50;5027612;28;20431;-67
2023/08/03 10:31:19;;;;;;;0.63;0.60;;;;;;;19.24;100.00;99742.78;5022530;28;20491;-66
2023/08/03 10:33:50;;;;;;;2.45;0.70;;;;;;;19.50;100.00;99730.66;5029276;28;20919;-66
2023/08/03 10:36:38;;;;;;;1.25;0.70;;;;;;;19.77;100.00;99737.09;5029507;28;20053;-66
2023/08/03 10:39:14;;;;;;;1.23;0.70;;;;;;;19.73;100.00;99739.19;5028870;28;20080;-67
2023/08/03 10:41:50;;;;;;;2.03;0.90;;;;;;;19.71;100.00;99746.44;5019101;28;20063;-66
2023/08/03 10:44:20;;;;;;;9.35;0.80;;;;;;;19.40;100.00;99734.28;5029737;28;20037;-67
2023/08/03 10:46:49;;;;;;;1.83;0.70;;;;;;;19.61;100.00;99740.28;5029286;28;20320;-67
2023/08/03 10:49:23;;;;;;;0.95;0.60;;;;;;;19.64;100.00;99745.31;5039237;28;20049;-67
2023/08/03 10:51:55;;;;;;;1.48;0.60;;;;;;;19.47;100.00;99743.38;5023711;28;20585;-67
2023/08/03 10:54:29;;;;;;;1.52;0.73;;;;;;;19.50;100.00;99761.69;5031590;28;20047;-66
2023/08/03 10:57:03;;;;;;;1.38;0.70;;;;;;;19.54;100.00;99766.56;5038784;28;20055;-66
2023/08/03 10:59:37;;;;;;;3.00;0.90;;;;;;;19.72;100.00;99768.53;5030500;28;20406;-66
2023/08/03 11:02:13;;;;;;;0.73;0.63;;;;;;;19.33;100.00;99776.47;5039889;28;20049;-66
2023/08/03 11:04:45;;;;;;;2.05;0.70;;;;;;;19.38;100.00;99768.94;5027809;28;20498;-66
2023/08/03 11:07:16;;;;;;;1.45;0.60;;;;;;;19.20;100.00;99767.94;5029908;28;20055;-66
2023/08/03 11:09:45;;;;;;;2.05;0.70;;;;;;;19.65;100.00;99770.88;5030212;28;20041;-66
2023/08/03 11:12:14;;;;;;;3.10;0.70;;;;;;;19.43;100.00;99789.75;5032086;28;20045;-66
2023/08/03 11:14:41;;;;;;;2.28;0.80;;;;;;;19.30;100.00;99790.84;5035319;28;20064;-66
2023/08/03 11:17:09;;;;;;;1.77;0.70;;;;;;;19.53;100.00;99780.00;5030841;28;20059;-66
2023/08/03 11:19:39;;;;;;;1.35;0.70;;;;;;;19.67;100.00;99778.72;5038826;28;20114;-66
2023/08/03 11:22:06;;;;;;;1.70;0.88;;;;;;;19.44;100.00;99799.38;5041777;28;20531;-66
2023/08/03 11:24:33;;;;;;;0.70;0.60;;;;;;;18.92;100.00;99799.53;5023956;28;20045;-66
2023/08/03 11:27:02;;;;;;;3.47;1.00;;;;;;;19.01;100.00;99813.81;5025739;28;20565;-66
2023/08/03 11:29:30;;;;;;;2.78;0.93;;;;;;;19.54;100.00;99789.63;5030968;28;20055;-66
2023/08/03 11:31:56;;;;;;;1.60;0.73;;;;;;;19.70;100.00;99810.31;5034036;28;20420;-66